Aviation Digital Data Service (ADDS)

Output produced by METARs form (1854 UTC 19 September 2017)
found at http://www.aviationweather.gov/adds/metars/
 
LLBG 191850Z VRB02KT 9999 FEW025 27/22 Q1011 NOSIG
TAF LLBG 191703Z 1918/2018 VRB03KT 9999 FEW025 
     BECMG 1921/1923 15004KT SCT025 
     PROB40 2001/2006 -RA BKN020 
     BECMG 2007/2009 28010KT 9999 FEW030 TX30/2012Z TN22/2003Z
       
LLET 191850Z 22004KT CAVOK 33/12 Q1010
TAF LLET 191702Z 1918/2018 19010KT CAVOK 
     BECMG 1919/1921 36008KT 
     BECMG 2006/2008 02012KT 
     PROB30 2009/2012 17005KT TX38/2012Z TN26/2003Z
       
LLHA 191650Z 33006KT 9999 FEW025 27/21 Q1010
TAF LLHA 191705Z 1918/2018 VRB04KT 9999 FEW025 
     BECMG 1921/1923 14004KT SCT025 
     PROB40 2001/2006 -RA BKN020 
     BECMG 2007/2009 26008KT SCT030 TX29/2012Z TN23/2003Z
       
LLIB 191450Z 36011KT 9999 FEW050 30/17 Q1010
TAF LLIB 191109Z 1912/2012 20010KT CAVOK 
     FM191300 33013KT CAVOK 
     BECMG 1916/1918 VRB03KT 
     BECMG 1923/2001 22004KT 8000 SCT020 
     BECMG 2005/2007 16006KT 9999 SCT030 TX33/1912Z TN18/2003Z
       
LLSD 191850Z VRB02KT 9999 FEW025 27/21 Q1011
TAF LLSD 191704Z 1918/2018 VRB03KT 9999 SCT025 
     BECMG 1921/1923 14004KT 
     PROB40 2001/2006 -RA BKN020 
     BECMG 2007/2009 28010KT FEW030 TX29/2012Z TN23/2003Z
       
LLBG 191850Z VRB02KT 9999 FEW025 27/22 Q1011 NOSIG
TAF LLBG 191703Z 1918/2018 VRB03KT 9999 FEW025 
     BECMG 1921/1923 15004KT SCT025 
     PROB40 2001/2006 -RA BKN020 
     BECMG 2007/2009 28010KT 9999 FEW030 TX30/2012Z TN22/2003Z
       
LLET 191850Z 22004KT CAVOK 33/12 Q1010
TAF LLET 191702Z 1918/2018 19010KT CAVOK 
     BECMG 1919/1921 36008KT 
     BECMG 2006/2008 02012KT 
     PROB30 2009/2012 17005KT TX38/2012Z TN26/2003Z
       
LLHA 191650Z 33006KT 9999 FEW025 27/21 Q1010
TAF LLHA 191705Z 1918/2018 VRB04KT 9999 FEW025 
     BECMG 1921/1923 14004KT SCT025 
     PROB40 2001/2006 -RA BKN020 
     BECMG 2007/2009 26008KT SCT030 TX29/2012Z TN23/2003Z
       
LLIB 191450Z 36011KT 9999 FEW050 30/17 Q1010
TAF LLIB 191109Z 1912/2012 20010KT CAVOK 
     FM191300 33013KT CAVOK 
     BECMG 1916/1918 VRB03KT 
     BECMG 1923/2001 22004KT 8000 SCT020 
     BECMG 2005/2007 16006KT 9999 SCT030 TX33/1912Z TN18/2003Z
       
LLSD 191850Z VRB02KT 9999 FEW025 27/21 Q1011
TAF LLSD 191704Z 1918/2018 VRB03KT 9999 SCT025 
     BECMG 1921/1923 14004KT 
     PROB40 2001/2006 -RA BKN020 
     BECMG 2007/2009 28010KT FEW030 TX29/2012Z TN23/2003Z